createdAt,value
2023-01-13T00:04:13.498Z,71.20
2023-01-13T00:09:16.298Z,71.89
2023-01-13T00:14:19.109Z,71.89
2023-01-13T00:19:22.211Z,72.15
2023-01-13T00:24:25.220Z,72.11
2023-01-13T00:29:28.119Z,72.05
2023-01-13T00:34:31.028Z,72.29
2023-01-13T00:39:33.932Z,73.06
2023-01-13T00:44:36.832Z,73.51
2023-01-13T00:49:39.634Z,73.67
2023-01-13T00:54:42.434Z,73.81
2023-01-13T00:59:45.242Z,74.40
2023-01-13T01:04:48.043Z,75.72
2023-01-13T01:09:50.842Z,75.70
2023-01-13T01:14:53.640Z,75.97
2023-01-13T01:19:56.544Z,75.48
2023-01-13T01:24:59.975Z,75.27
2023-01-13T01:30:02.865Z,74.96
2023-01-13T01:35:06.780Z,75.55
2023-01-13T01:40:10.911Z,75.55
2023-01-13T01:45:25.300Z,75.72
2023-01-13T01:50:29.842Z,75.90
2023-01-13T01:55:37.150Z,75.88
2023-01-13T02:00:40.652Z,77.09
2023-01-13T02:05:43.676Z,78.91
2023-01-13T02:10:53.423Z,79.65
2023-01-13T02:16:07.989Z,78.93
2023-01-13T02:21:32.641Z,78.19
2023-01-13T02:26:38.401Z,78.35
2023-01-13T02:31:46.493Z,78.12
2023-01-13T02:36:55.482Z,78.01
2023-01-13T02:42:27.681Z,78.12
2023-01-13T02:47:36.136Z,78.53
2023-01-13T02:52:46.177Z,79.28
2023-01-13T02:57:50.921Z,79.61
2023-01-13T03:02:54.324Z,79.55
2023-01-13T03:08:15.866Z,80.13
2023-01-13T03:13:37.030Z,80.41
2023-01-13T03:18:52.695Z,80.48
2023-01-13T03:24:28.068Z,80.88
2023-01-13T03:29:42.837Z,80.48
2023-01-13T03:34:54.141Z,81.09
2023-01-13T03:40:05.047Z,82.40
2023-01-13T03:45:14.412Z,82.52
2023-01-13T03:50:49.581Z,82.28
2023-01-13T03:55:58.620Z,82.69
2023-01-13T04:01:11.377Z,82.49
2023-01-13T04:06:38.349Z,82.82
2023-01-13T04:11:52.076Z,83.26
2023-01-13T04:16:56.336Z,83.01
2023-01-13T04:21:59.722Z,83.16
2023-01-13T04:27:03.041Z,83.08
2023-01-13T04:32:05.840Z,83.09
2023-01-13T04:37:08.643Z,83.23
2023-01-13T04:42:11.462Z,83.51
2023-01-13T04:47:14.244Z,83.59
2023-01-13T04:52:17.060Z,83.98
2023-01-13T04:57:19.849Z,84.11
2023-01-13T05:02:22.701Z,84.40
2023-01-13T05:07:25.532Z,84.09
2023-01-13T05:12:46.637Z,83.83
2023-01-13T05:17:50.386Z,84.13
2023-01-13T05:23:11.595Z,83.87
2023-01-13T05:28:14.557Z,83.84
2023-01-13T05:33:20.448Z,83.93
2023-01-13T05:38:23.307Z,83.70
2023-01-13T05:43:27.217Z,83.17
2023-01-13T05:48:39.517Z,81.38
2023-01-13T05:53:42.286Z,80.23
2023-01-13T05:58:45.029Z,78.09
2023-01-13T06:03:47.716Z,76.88
2023-01-13T06:08:50.453Z,77.15
2023-01-13T06:13:53.487Z,77.44
2023-01-13T06:18:56.292Z,77.61
2023-01-13T06:23:59.579Z,77.35
2023-01-13T06:29:02.234Z,78.04
2023-01-13T06:34:11.669Z,78.11
2023-01-13T06:39:20.713Z,78.17
2023-01-13T06:44:24.637Z,79.09
2023-01-13T06:49:27.437Z,79.03
2023-01-13T06:54:30.748Z,78.22
2023-01-13T06:59:36.234Z,77.94
2023-01-13T07:04:39.017Z,78.42
2023-01-13T07:09:41.814Z,77.93
2023-01-13T07:15:03.267Z,78.93
2023-01-13T07:20:07.090Z,78.24
2023-01-13T07:25:10.688Z,77.72
2023-01-13T07:30:14.044Z,78.17
2023-01-13T07:35:21.889Z,77.65
2023-01-13T07:40:24.668Z,77.30
2023-01-13T07:45:27.459Z,77.52
2023-01-13T07:50:30.233Z,77.39
2023-01-13T07:55:32.925Z,77.37
2023-01-13T08:00:36.969Z,77.19
2023-01-13T08:05:40.075Z,77.93
2023-01-13T08:10:43.096Z,78.01
2023-01-13T08:15:48.527Z,78.01
2023-01-13T08:20:52.798Z,77.14
2023-01-13T08:26:02.096Z,77.06
2023-01-13T08:31:07.402Z,76.07
2023-01-13T08:36:12.493Z,77.05
2023-01-13T08:41:36.938Z,77.13
2023-01-13T08:46:39.776Z,76.77
2023-01-13T08:51:42.780Z,76.89
2023-01-13T08:56:46.140Z,76.64
2023-01-13T09:01:49.520Z,76.61
2023-01-13T09:06:52.619Z,75.73
2023-01-13T09:12:14.527Z,75.58
2023-01-13T09:17:18.548Z,75.60
2023-01-13T09:22:22.060Z,76.47
2023-01-13T09:27:25.016Z,75.81
2023-01-13T09:32:27.767Z,75.80
2023-01-13T09:37:34.433Z,75.51
2023-01-13T09:43:05.885Z,75.78
2023-01-13T09:48:30.295Z,75.61
2023-01-13T09:53:59.624Z,75.41
2023-01-13T09:59:02.622Z,75.75
2023-01-13T10:04:12.397Z,75.47
2023-01-13T10:09:21.346Z,75.69
2023-01-13T10:14:35.917Z,75.29
2023-01-13T10:19:43.680Z,75.99
2023-01-13T10:25:27.050Z,76.16
2023-01-13T10:30:40.354Z,75.97
2023-01-13T10:35:55.219Z,75.28
2023-01-13T10:41:01.191Z,75.11
2023-01-13T10:46:05.976Z,75.33
2023-01-13T10:51:19.255Z,75.28
2023-01-13T10:56:25.370Z,75.89
2023-01-13T11:01:30.600Z,75.82
2023-01-13T11:06:36.279Z,75.65
2023-01-13T11:11:47.191Z,74.58
2023-01-13T11:16:56.278Z,74.35
2023-01-13T11:22:08.773Z,74.70
2023-01-13T11:27:14.240Z,74.69
2023-01-13T11:32:20.532Z,74.40
2023-01-13T11:37:31.379Z,74.62
2023-01-13T11:42:44.350Z,74.35
2023-01-13T11:47:51.910Z,74.76
2023-01-13T11:53:12.371Z,74.47
2023-01-13T11:58:50.646Z,75.47
2023-01-13T12:04:20.957Z,76.03
2023-01-13T12:09:35.222Z,75.17
2023-01-13T12:14:54.189Z,74.97
2023-01-13T12:19:57.336Z,75.10
2023-01-13T12:25:14.147Z,74.80
2023-01-13T12:30:40.694Z,74.47
2023-01-13T12:35:56.380Z,74.45
2023-01-13T12:41:16.926Z,74.35
2023-01-13T12:46:19.659Z,74.14
2023-01-13T12:51:25.824Z,74.11
2023-01-13T12:56:42.182Z,74.48
2023-01-13T13:01:47.464Z,74.20
2023-01-13T13:07:04.751Z,74.07
2023-01-13T13:12:51.426Z,73.44
2023-01-13T13:18:17.546Z,73.84
2023-01-13T13:23:38.963Z,73.47
2023-01-13T13:28:53.771Z,73.43
2023-01-13T13:34:25.969Z,73.20
2023-01-13T13:39:51.318Z,72.89
2023-01-13T13:45:14.334Z,72.68
2023-01-13T13:50:20.892Z,72.65
2023-01-13T13:55:26.812Z,72.43
2023-01-13T14:00:36.042Z,72.60
2023-01-13T14:05:38.845Z,72.64
2023-01-13T14:10:44.939Z,72.74
2023-01-13T14:16:00.668Z,72.80
2023-01-13T14:21:18.742Z,72.65
2023-01-13T14:26:32.400Z,72.75
2023-01-13T14:31:35.599Z,72.57
2023-01-13T14:36:39.448Z,71.87
2023-01-13T14:41:42.223Z,72.13
2023-01-13T14:46:46.047Z,73.08
2023-01-13T14:51:48.847Z,73.18
2023-01-13T14:56:53.952Z,73.07
2023-01-13T15:01:57.722Z,72.94
2023-01-13T15:07:01.651Z,72.65
2023-01-13T15:12:24.007Z,72.37
2023-01-13T15:17:28.843Z,71.98
2023-01-13T15:22:31.495Z,72.16
2023-01-13T15:27:34.253Z,72.24
2023-01-13T15:32:37.367Z,72.53
2023-01-13T15:37:41.008Z,71.90
2023-01-13T15:43:02.518Z,72.74
2023-01-13T15:48:06.039Z,73.27
2023-01-13T15:53:14.437Z,73.01
2023-01-13T15:58:20.790Z,73.29
2023-01-13T16:03:24.257Z,74.19
2023-01-13T16:08:27.003Z,73.80
2023-01-13T16:13:29.790Z,73.75
2023-01-13T16:18:32.594Z,73.33
2023-01-13T16:23:35.317Z,72.97
2023-01-13T16:28:38.114Z,73.00
2023-01-13T16:33:41.453Z,72.81
2023-01-13T16:38:44.456Z,72.32
2023-01-13T16:43:48.532Z,73.17
2023-01-13T16:48:53.309Z,73.05
2023-01-13T16:53:56.359Z,72.34
2023-01-13T16:59:14.417Z,71.95
2023-01-13T17:04:19.889Z,72.84
2023-01-13T17:09:25.666Z,72.90
2023-01-13T17:14:28.393Z,72.16
2023-01-13T17:19:31.204Z,71.09
2023-01-13T17:24:35.299Z,70.76
2023-01-13T17:29:38.648Z,71.20
2023-01-13T17:34:41.447Z,71.29
2023-01-13T17:39:46.495Z,70.95
2023-01-13T17:44:50.608Z,70.15
2023-01-13T17:49:53.311Z,70.22
2023-01-13T17:54:56.208Z,70.09
2023-01-13T17:59:59.747Z,70.57
2023-01-13T18:05:02.630Z,70.80
2023-01-13T18:10:06.194Z,70.83
2023-01-13T18:15:09.646Z,70.61
2023-01-13T18:20:35.399Z,70.29
2023-01-13T18:25:58.060Z,69.50
2023-01-13T18:31:00.909Z,69.77
2023-01-13T18:36:08.021Z,69.78
2023-01-13T18:41:30.845Z,69.66
2023-01-13T18:46:33.584Z,69.50
2023-01-13T18:51:36.304Z,69.25
2023-01-13T18:56:39.016Z,69.29
2023-01-13T19:01:42.870Z,68.23
2023-01-13T19:06:49.868Z,68.61
2023-01-13T19:11:53.277Z,68.13
2023-01-13T19:16:55.984Z,68.85
2023-01-13T19:21:58.886Z,69.04
2023-01-13T19:27:01.806Z,68.40
2023-01-13T19:32:05.424Z,67.92
2023-01-13T19:37:08.523Z,67.87
2023-01-13T19:42:31.393Z,68.41
2023-01-13T19:47:34.433Z,67.56
2023-01-13T19:52:37.327Z,67.32
2023-01-13T19:57:40.870Z,67.69
2023-01-13T20:02:49.549Z,68.42
2023-01-13T20:07:53.000Z,68.28
2023-01-13T20:12:55.890Z,68.10
2023-01-13T20:17:58.897Z,67.95
2023-01-13T20:23:01.698Z,68.07
2023-01-13T20:28:05.353Z,68.38
2023-01-13T20:33:08.516Z,67.61
2023-01-13T20:38:12.291Z,67.24
2023-01-13T20:43:16.627Z,67.19
2023-01-13T20:48:20.883Z,67.52
2023-01-13T20:53:23.629Z,68.49
2023-01-13T20:58:26.431Z,68.71
2023-01-13T21:03:29.413Z,67.80
2023-01-13T21:08:32.433Z,67.11
2023-01-13T21:13:53.618Z,67.18
2023-01-13T21:19:08.232Z,68.53
2023-01-13T21:24:10.948Z,68.27
2023-01-13T21:29:13.762Z,68.10
2023-01-13T21:34:16.565Z,67.39
2023-01-13T21:39:19.504Z,67.00
2023-01-13T21:44:41.006Z,68.06
2023-01-13T21:49:45.413Z,67.69
2023-01-13T21:55:06.823Z,67.91
2023-01-13T22:00:10.744Z,67.98
2023-01-13T22:05:15.777Z,68.38
2023-01-13T22:10:23.708Z,67.95
2023-01-13T22:15:29.054Z,67.47
2023-01-13T22:20:31.849Z,67.15
2023-01-13T22:25:34.655Z,67.22
2023-01-13T22:30:39.010Z,67.47
2023-01-13T22:35:41.676Z,66.90
2023-01-13T22:40:44.374Z,66.59
2023-01-13T22:45:57.580Z,66.86
2023-01-13T22:51:15.190Z,66.65
2023-01-13T22:56:21.668Z,66.41
2023-01-13T23:01:26.736Z,66.25
2023-01-13T23:06:31.785Z,66.87
2023-01-13T23:11:35.414Z,66.87
2023-01-13T23:16:40.404Z,66.93
2023-01-13T23:21:43.295Z,66.63
2023-01-13T23:26:46.156Z,66.36
2023-01-13T23:31:48.966Z,66.67
2023-01-13T23:36:51.765Z,66.81
2023-01-13T23:41:55.013Z,66.52
2023-01-13T23:46:57.781Z,65.93
2023-01-13T23:52:00.899Z,66.33
2023-01-13T23:57:03.687Z,67.56
